createdAt,value
2022-10-07T00:00:50.228Z,3.88
2022-10-07T00:03:17.926Z,2.47
2022-10-07T00:05:45.038Z,2.97
2022-10-07T00:08:12.008Z,3.27
2022-10-07T00:10:42.927Z,1.87
2022-10-07T00:13:11.205Z,3.38
2022-10-07T00:15:37.965Z,3.50
2022-10-07T00:18:04.858Z,3.04
2022-10-07T00:20:31.606Z,2.90
2022-10-07T00:22:58.232Z,3.46
2022-10-07T00:25:24.865Z,3.98
2022-10-07T00:27:51.790Z,3.38
2022-10-07T00:30:18.392Z,2.43
2022-10-07T00:32:45.125Z,2.84
2022-10-07T00:35:11.931Z,2.80
2022-10-07T00:37:38.619Z,2.25
2022-10-07T00:40:05.569Z,3.78
2022-10-07T00:42:32.415Z,0.30
2022-10-07T00:44:59.011Z,0.50
2022-10-07T00:47:32.260Z,2.88
2022-10-07T00:50:09.185Z,3.25
2022-10-07T00:52:40.024Z,3.54
2022-10-07T00:55:11.348Z,3.04
2022-10-07T00:57:39.730Z,3.06
2022-10-07T01:00:07.778Z,1.32
2022-10-07T01:02:36.789Z,2.01
2022-10-07T01:05:06.548Z,3.58
2022-10-07T01:07:38.114Z,1.77
2022-10-07T01:10:06.397Z,1.51
2022-10-07T01:12:33.111Z,3.44
2022-10-07T01:15:18.547Z,3.20
2022-10-07T01:18:00.868Z,2.57
2022-10-07T01:20:33.020Z,3.27
2022-10-07T01:23:12.012Z,3.32
2022-10-07T01:26:16.257Z,3.23
2022-10-07T01:29:00.580Z,3.17
2022-10-07T01:31:47.261Z,1.57
2022-10-07T01:34:15.099Z,2.67
2022-10-07T01:36:44.510Z,2.39
2022-10-07T01:39:15.669Z,2.39
2022-10-07T01:41:42.649Z,2.24
2022-10-07T01:44:12.467Z,2.82
2022-10-07T01:46:39.425Z,3.04
2022-10-07T01:49:08.446Z,3.05
2022-10-07T01:51:42.359Z,2.45
2022-10-07T01:54:35.375Z,3.27
2022-10-07T01:57:15.768Z,2.63
2022-10-07T01:59:45.404Z,3.11
2022-10-07T02:02:38.489Z,2.92
2022-10-07T02:05:28.420Z,1.49
2022-10-07T02:08:11.838Z,2.03
2022-10-07T02:10:50.198Z,2.38
2022-10-07T02:13:33.385Z,2.87
2022-10-07T02:16:10.331Z,2.25
2022-10-07T02:18:39.823Z,2.93
2022-10-07T02:21:10.443Z,1.09
2022-10-07T02:23:41.030Z,2.10
2022-10-07T02:26:10.001Z,2.59
2022-10-07T02:28:41.312Z,2.27
2022-10-07T02:31:12.637Z,1.93
2022-10-07T02:33:41.275Z,1.62
2022-10-07T02:36:13.362Z,2.04
2022-10-07T02:38:40.413Z,0.96
2022-10-07T02:41:13.276Z,2.65
2022-10-07T02:43:48.626Z,-0.67
2022-10-07T02:46:30.351Z,1.84
2022-10-07T02:49:06.669Z,2.34
2022-10-07T02:51:40.622Z,1.05
2022-10-07T02:54:07.654Z,1.43
2022-10-07T02:56:37.866Z,-0.39
2022-10-07T02:59:08.170Z,0.50
2022-10-07T03:01:42.253Z,1.71
2022-10-07T03:04:09.462Z,1.26
2022-10-07T03:06:36.249Z,1.36
2022-10-07T03:09:03.789Z,1.37
2022-10-07T03:11:30.689Z,1.17
2022-10-07T03:13:57.488Z,1.76
2022-10-07T03:16:24.423Z,1.89
2022-10-07T03:18:51.101Z,1.49
2022-10-07T03:21:40.711Z,-0.83
2022-10-07T03:24:07.946Z,0.96
2022-10-07T03:26:40.562Z,-0.82
2022-10-07T03:29:07.438Z,0.62
2022-10-07T03:31:34.369Z,0.37
2022-10-07T03:34:01.293Z,0.32
2022-10-07T03:36:28.265Z,2.09
2022-10-07T03:38:55.351Z,0.63
2022-10-07T03:41:22.971Z,1.62
2022-10-07T03:43:52.893Z,1.19
2022-10-07T03:46:21.992Z,-0.03
2022-10-07T03:48:49.655Z,1.37
2022-10-07T03:51:17.176Z,-1.45
2022-10-07T03:53:44.611Z,1.56
2022-10-07T03:56:11.773Z,0.05
2022-10-07T03:58:41.181Z,-0.17
2022-10-07T04:01:12.135Z,0.13
2022-10-07T04:03:44.719Z,0.83
2022-10-07T04:06:11.609Z,1.06
2022-10-07T04:08:38.718Z,-1.34
2022-10-07T04:11:06.191Z,0.73
2022-10-07T04:13:33.799Z,-0.34
2022-10-07T04:16:07.700Z,-0.49
2022-10-07T04:18:34.865Z,-0.13
2022-10-07T04:21:02.213Z,0.81
2022-10-07T04:23:31.462Z,0.31
2022-10-07T04:25:58.095Z,1.09
2022-10-07T04:28:25.661Z,1.04
2022-10-07T04:31:03.860Z,-0.36
2022-10-07T04:33:38.084Z,0.52
2022-10-07T04:36:07.352Z,0.63
2022-10-07T04:38:37.763Z,0.70
2022-10-07T04:41:07.880Z,0.35
2022-10-07T04:43:36.803Z,1.27
2022-10-07T04:46:12.023Z,1.34
2022-10-07T04:48:46.455Z,0.77
2022-10-07T04:51:16.213Z,0.59
2022-10-07T04:53:56.321Z,1.53
2022-10-07T04:56:26.982Z,0.97
2022-10-07T04:58:54.049Z,1.02
2022-10-07T05:01:20.969Z,0.72
2022-10-07T05:03:48.666Z,-0.16
2022-10-07T05:06:15.936Z,1.04
2022-10-07T05:08:43.447Z,0.69
2022-10-07T05:11:11.900Z,0.52
2022-10-07T05:13:47.917Z,0.02
2022-10-07T05:16:15.487Z,1.04
2022-10-07T05:18:42.721Z,0.53
2022-10-07T05:21:11.978Z,0.87
2022-10-07T05:23:42.833Z,0.36
2022-10-07T05:26:13.820Z,0.37
2022-10-07T05:28:43.266Z,0.26
2022-10-07T05:31:14.264Z,0.38
2022-10-07T05:33:43.577Z,0.84
2022-10-07T05:36:11.640Z,0.54
2022-10-07T05:38:39.549Z,0.59
2022-10-07T05:41:08.295Z,0.95
2022-10-07T05:43:39.479Z,0.67
2022-10-07T05:46:12.110Z,0.19
2022-10-07T05:48:45.854Z,0.89
2022-10-07T05:51:13.191Z,-1.04
2022-10-07T05:53:41.184Z,0.75
2022-10-07T05:56:11.092Z,0.42
2022-10-07T05:58:38.704Z,0.78
2022-10-07T06:01:14.028Z,1.12
2022-10-07T06:03:43.486Z,0.53
2022-10-07T06:06:10.773Z,0.13
2022-10-07T06:08:37.794Z,0.83
2022-10-07T06:11:06.241Z,1.39
2022-10-07T06:13:34.659Z,1.47
2022-10-07T06:16:03.050Z,0.86
2022-10-07T06:18:32.634Z,1.24
2022-10-07T06:21:01.333Z,1.20
2022-10-07T06:23:30.646Z,1.50
2022-10-07T06:26:04.055Z,0.50
2022-10-07T06:28:40.715Z,0.55
2022-10-07T06:31:14.981Z,1.53
2022-10-07T06:33:43.545Z,1.23
2022-10-07T06:36:13.389Z,1.59
2022-10-07T06:38:46.765Z,0.93
2022-10-07T06:41:14.656Z,0.72
2022-10-07T06:43:41.801Z,1.82
2022-10-07T06:46:20.167Z,1.55
2022-10-07T06:48:49.606Z,2.05
2022-10-07T06:51:19.994Z,1.23
2022-10-07T06:53:52.319Z,1.48
2022-10-07T06:56:19.804Z,2.10
2022-10-07T06:58:47.436Z,2.08
2022-10-07T07:01:16.262Z,1.77
2022-10-07T07:03:42.887Z,1.39
2022-10-07T07:06:10.280Z,2.18
2022-10-07T07:08:37.916Z,1.54
2022-10-07T07:11:13.613Z,2.40
2022-10-07T07:13:43.839Z,1.45
2022-10-07T07:16:12.992Z,2.17
2022-10-07T07:18:39.700Z,2.05
2022-10-07T07:21:06.588Z,2.11
2022-10-07T07:23:33.501Z,2.26
2022-10-07T07:26:00.942Z,2.74
2022-10-07T07:28:27.834Z,2.10
2022-10-07T07:30:54.979Z,1.74
2022-10-07T07:33:21.611Z,-0.33
2022-10-07T07:35:48.779Z,2.38
2022-10-07T07:38:15.948Z,1.95
2022-10-07T07:40:42.919Z,2.55
2022-10-07T07:43:09.801Z,3.56
2022-10-07T07:45:38.059Z,3.61
2022-10-07T07:48:05.137Z,2.96
2022-10-07T07:50:33.639Z,3.62
2022-10-07T07:53:00.592Z,3.32
2022-10-07T07:55:27.481Z,3.33
2022-10-07T07:57:54.495Z,3.31
2022-10-07T08:00:21.381Z,3.21
2022-10-07T08:02:59.385Z,3.72
2022-10-07T08:05:26.347Z,3.86
2022-10-07T08:07:55.854Z,3.99
2022-10-07T08:10:24.587Z,3.78
2022-10-07T08:12:51.452Z,3.93
2022-10-07T08:15:18.390Z,4.31
2022-10-07T08:17:46.017Z,4.59
2022-10-07T08:20:12.947Z,4.33
2022-10-07T08:22:39.746Z,5.01
2022-10-07T08:25:07.025Z,4.45
2022-10-07T08:27:34.594Z,4.51
2022-10-07T08:30:02.401Z,5.24
2022-10-07T08:32:30.997Z,4.85
2022-10-07T08:34:57.917Z,5.50
2022-10-07T08:37:24.637Z,3.60
2022-10-07T08:39:51.614Z,4.42
2022-10-07T08:42:35.640Z,6.29
2022-10-07T08:45:02.546Z,5.92
2022-10-07T08:47:39.461Z,6.15
2022-10-07T08:50:19.099Z,6.12
2022-10-07T08:53:03.488Z,6.53
2022-10-07T08:55:54.419Z,6.90
2022-10-07T08:58:50.798Z,6.13
2022-10-07T09:01:48.648Z,7.19
2022-10-07T09:04:37.071Z,7.57
2022-10-07T09:07:08.469Z,6.94
2022-10-07T09:09:43.825Z,7.88
2022-10-07T09:12:20.690Z,7.92
2022-10-07T09:14:51.417Z,7.32
2022-10-07T09:17:41.912Z,7.94
2022-10-07T09:20:16.589Z,7.84
2022-10-07T09:22:47.769Z,7.79
2022-10-07T09:25:25.525Z,8.94
2022-10-07T09:27:52.673Z,9.35
2022-10-07T09:30:21.085Z,8.94
2022-10-07T09:32:55.037Z,9.24
2022-10-07T09:35:24.861Z,10.27
2022-10-07T09:38:11.704Z,10.14
2022-10-07T09:40:44.296Z,10.64
2022-10-07T09:43:12.333Z,10.32
2022-10-07T09:45:45.051Z,10.80
2022-10-07T09:48:21.133Z,10.87
2022-10-07T09:50:48.354Z,10.79
2022-10-07T09:53:26.398Z,11.59
2022-10-07T09:55:54.103Z,12.00
2022-10-07T09:58:24.754Z,12.15
2022-10-07T10:00:54.150Z,12.02
2022-10-07T10:03:28.103Z,11.48
2022-10-07T10:06:06.731Z,10.68
2022-10-07T10:08:37.009Z,12.25
2022-10-07T10:11:07.449Z,11.19
2022-10-07T10:13:39.338Z,11.92
2022-10-07T10:16:27.616Z,12.77
2022-10-07T10:19:00.265Z,12.94
2022-10-07T10:21:28.552Z,12.92
2022-10-07T10:24:18.725Z,12.14
2022-10-07T10:27:06.016Z,13.02
2022-10-07T10:29:55.461Z,13.40
2022-10-07T10:32:37.457Z,13.59
2022-10-07T10:35:16.107Z,13.65
2022-10-07T10:38:13.925Z,13.43
2022-10-07T10:41:19.937Z,13.16
2022-10-07T10:44:07.919Z,13.82
2022-10-07T10:46:52.239Z,13.87
2022-10-07T10:49:43.811Z,14.39
2022-10-07T10:52:19.672Z,14.41
2022-10-07T10:54:55.601Z,14.30
2022-10-07T10:57:50.930Z,11.51
2022-10-07T11:00:22.952Z,14.73
2022-10-07T11:03:28.523Z,14.68
2022-10-07T11:05:56.162Z,13.42
2022-10-07T11:08:27.348Z,14.58
2022-10-07T11:10:58.512Z,14.85
2022-10-07T11:13:52.392Z,14.97
2022-10-07T11:16:44.039Z,14.88
2022-10-07T11:19:23.921Z,12.31
2022-10-07T11:21:54.613Z,14.57
2022-10-07T11:24:30.596Z,14.99
2022-10-07T11:27:04.270Z,15.22
2022-10-07T11:29:34.081Z,15.16
2022-10-07T11:32:44.737Z,15.60
2022-10-07T11:35:33.983Z,14.96
2022-10-07T11:38:16.652Z,15.14
2022-10-07T11:40:52.072Z,15.76
2022-10-07T11:43:30.385Z,16.06
2022-10-07T11:46:18.157Z,15.87
2022-10-07T11:49:12.868Z,15.72
2022-10-07T11:52:02.757Z,15.14
2022-10-07T11:54:42.339Z,15.37
2022-10-07T11:57:24.689Z,15.48
2022-10-07T11:59:58.730Z,15.97
2022-10-07T12:02:28.604Z,15.95
2022-10-07T12:04:59.244Z,15.95
2022-10-07T12:07:32.268Z,16.35
2022-10-07T12:10:02.065Z,16.42
2022-10-07T12:12:44.386Z,16.45
2022-10-07T12:15:28.905Z,16.48
2022-10-07T12:18:05.882Z,16.27
2022-10-07T12:20:34.163Z,16.50
2022-10-07T12:23:19.164Z,16.62
2022-10-07T12:25:50.312Z,16.60
2022-10-07T12:28:32.182Z,16.63
2022-10-07T12:31:04.904Z,15.26
2022-10-07T12:33:47.813Z,16.71
2022-10-07T12:36:23.504Z,16.76
2022-10-07T12:38:59.205Z,16.68
2022-10-07T12:41:26.791Z,16.88
2022-10-07T12:44:32.443Z,17.09
2022-10-07T12:47:08.495Z,16.26
2022-10-07T12:49:37.133Z,16.60
2022-10-07T12:52:09.615Z,15.95
2022-10-07T12:54:57.777Z,16.98
2022-10-07T12:57:32.150Z,16.81
2022-10-07T13:00:04.692Z,17.17
2022-10-07T13:02:53.003Z,17.01
2022-10-07T13:05:57.348Z,17.09
2022-10-07T13:08:36.932Z,17.00
2022-10-07T13:11:18.384Z,17.02
2022-10-07T13:13:58.690Z,17.13
2022-10-07T13:16:38.730Z,17.13
2022-10-07T13:19:23.558Z,17.15
2022-10-07T13:21:59.813Z,17.20
2022-10-07T13:24:28.830Z,17.38
2022-10-07T13:26:56.728Z,17.33
2022-10-07T13:29:30.405Z,17.43
2022-10-07T13:32:16.906Z,17.43
2022-10-07T13:34:44.963Z,17.36
2022-10-07T13:37:31.161Z,17.44
2022-10-07T13:40:18.818Z,17.38
2022-10-07T13:42:46.170Z,17.41
2022-10-07T13:45:14.706Z,17.59
2022-10-07T13:47:45.335Z,17.60
2022-10-07T13:50:18.502Z,17.60
2022-10-07T13:52:48.122Z,17.48
2022-10-07T13:55:33.277Z,17.81
2022-10-07T13:58:03.758Z,17.76
2022-10-07T14:00:32.289Z,17.79
2022-10-07T14:02:59.627Z,17.82
2022-10-07T14:05:29.812Z,17.89
2022-10-07T14:08:10.989Z,17.91
2022-10-07T14:10:55.988Z,17.97
2022-10-07T14:13:22.996Z,17.87
2022-10-07T14:15:53.787Z,17.74
2022-10-07T14:18:20.710Z,17.98
2022-10-07T14:20:51.509Z,18.18
2022-10-07T14:23:32.051Z,18.00
2022-10-07T14:26:02.498Z,18.07
2022-10-07T14:28:32.159Z,18.10
2022-10-07T14:31:08.872Z,18.06
2022-10-07T14:33:49.468Z,18.24
2022-10-07T14:36:18.712Z,18.29
2022-10-07T14:38:47.707Z,18.29
2022-10-07T14:41:16.987Z,18.08
2022-10-07T14:43:45.974Z,17.91
2022-10-07T14:46:22.217Z,17.82
2022-10-07T14:48:49.977Z,18.00
2022-10-07T14:51:19.733Z,17.57
2022-10-07T14:53:53.442Z,18.01
2022-10-07T14:56:30.500Z,18.06
2022-10-07T14:59:02.524Z,18.02
2022-10-07T15:01:29.366Z,17.96
2022-10-07T15:03:57.484Z,18.00
2022-10-07T15:06:25.166Z,17.48
2022-10-07T15:08:51.774Z,17.71
2022-10-07T15:11:20.661Z,17.69
2022-10-07T15:13:48.557Z,17.65
2022-10-07T15:16:18.406Z,17.53
2022-10-07T15:18:52.202Z,17.51
2022-10-07T15:21:24.143Z,17.40
2022-10-07T15:23:53.252Z,17.21
2022-10-07T15:26:20.578Z,16.80
2022-10-07T15:28:57.448Z,16.67
2022-10-07T15:31:27.892Z,16.54
2022-10-07T15:33:55.353Z,16.46
2022-10-07T15:36:23.158Z,16.45
2022-10-07T15:38:51.828Z,16.50
2022-10-07T15:41:38.209Z,16.46
2022-10-07T15:44:14.686Z,16.57
2022-10-07T15:46:42.362Z,16.69
2022-10-07T15:49:09.236Z,16.67
2022-10-07T15:51:36.005Z,16.64
2022-10-07T15:54:04.008Z,16.52
2022-10-07T15:56:31.048Z,16.32
2022-10-07T15:58:57.723Z,16.12
2022-10-07T16:01:24.686Z,15.59
2022-10-07T16:03:51.499Z,15.48
2022-10-07T16:06:22.108Z,15.59
2022-10-07T16:08:50.309Z,15.80
2022-10-07T16:11:17.500Z,15.69
2022-10-07T16:13:46.158Z,15.44
2022-10-07T16:16:14.842Z,15.32
2022-10-07T16:18:45.744Z,15.15
2022-10-07T16:21:15.082Z,15.18
2022-10-07T16:23:44.032Z,15.08
2022-10-07T16:26:12.558Z,15.01
2022-10-07T16:28:40.956Z,14.91
2022-10-07T16:31:07.766Z,14.69
2022-10-07T16:33:34.464Z,14.49
2022-10-07T16:36:10.378Z,14.44
2022-10-07T16:38:37.035Z,14.72
2022-10-07T16:41:03.689Z,14.77
2022-10-07T16:43:30.510Z,14.99
2022-10-07T16:46:01.290Z,15.05
2022-10-07T16:48:28.184Z,15.09
2022-10-07T16:50:54.841Z,14.91
2022-10-07T16:53:21.513Z,14.82
2022-10-07T16:55:48.102Z,14.82
2022-10-07T16:58:14.814Z,14.72
2022-10-07T17:00:41.385Z,14.70
2022-10-07T17:03:07.986Z,14.71
2022-10-07T17:05:34.600Z,14.63
2022-10-07T17:08:01.353Z,14.59
2022-10-07T17:10:27.935Z,14.58
2022-10-07T17:12:54.729Z,14.37
2022-10-07T17:15:21.394Z,14.47
2022-10-07T17:17:48.500Z,14.50
2022-10-07T17:20:15.601Z,14.47
2022-10-07T17:22:42.747Z,14.44
2022-10-07T17:25:09.743Z,14.32
2022-10-07T17:27:37.176Z,14.37
2022-10-07T17:30:04.332Z,14.39
2022-10-07T17:32:30.936Z,14.41
2022-10-07T17:34:57.661Z,14.36
2022-10-07T17:37:24.358Z,14.14
2022-10-07T17:39:50.921Z,14.32
2022-10-07T17:42:17.604Z,14.00
2022-10-07T17:44:44.168Z,13.87
2022-10-07T17:47:10.878Z,13.67
2022-10-07T17:49:37.655Z,13.33
2022-10-07T17:52:04.268Z,13.63
2022-10-07T17:54:30.859Z,13.73
2022-10-07T17:56:57.797Z,13.72
2022-10-07T17:59:24.395Z,13.68
2022-10-07T18:01:51.081Z,13.65
2022-10-07T18:04:22.273Z,13.49
2022-10-07T18:06:51.380Z,13.47
2022-10-07T18:09:17.949Z,13.40
2022-10-07T18:11:45.582Z,13.48
2022-10-07T18:14:12.195Z,13.30
2022-10-07T18:16:38.882Z,13.34
2022-10-07T18:19:05.588Z,13.28
2022-10-07T18:21:32.479Z,13.17
2022-10-07T18:23:59.359Z,13.16
2022-10-07T18:26:26.101Z,13.28
2022-10-07T18:28:52.786Z,12.98
2022-10-07T18:31:19.859Z,13.01
2022-10-07T18:33:46.565Z,12.92
2022-10-07T18:36:17.015Z,13.05
2022-10-07T18:38:45.043Z,12.97
2022-10-07T18:41:13.981Z,12.85
2022-10-07T18:43:42.657Z,12.89
2022-10-07T18:46:17.274Z,12.91
2022-10-07T18:48:45.674Z,12.89
2022-10-07T18:51:13.592Z,12.93
2022-10-07T18:53:44.009Z,12.74
2022-10-07T18:56:12.950Z,12.72
2022-10-07T18:58:42.989Z,12.58
2022-10-07T19:01:15.311Z,12.40
2022-10-07T19:03:43.476Z,12.47
2022-10-07T19:06:19.305Z,12.25
2022-10-07T19:08:46.827Z,11.99
2022-10-07T19:11:18.609Z,11.99
2022-10-07T19:13:46.684Z,11.97
2022-10-07T19:16:26.877Z,11.90
2022-10-07T19:18:57.405Z,11.99
2022-10-07T19:21:25.124Z,11.96
2022-10-07T19:23:56.596Z,11.86
2022-10-07T19:26:26.336Z,12.02
2022-10-07T19:28:54.319Z,12.09
2022-10-07T19:31:27.739Z,12.00
2022-10-07T19:33:59.920Z,11.85
2022-10-07T19:36:26.983Z,11.89
2022-10-07T19:38:54.069Z,11.87
2022-10-07T19:41:23.886Z,11.81
2022-10-07T19:43:51.546Z,11.58
2022-10-07T19:46:20.078Z,11.42
2022-10-07T19:48:46.946Z,11.38
2022-10-07T19:51:16.508Z,11.52
2022-10-07T19:53:46.983Z,11.41
2022-10-07T19:56:19.618Z,11.37
2022-10-07T19:58:48.610Z,11.14
2022-10-07T20:01:18.981Z,11.20
2022-10-07T20:03:45.741Z,11.19
2022-10-07T20:06:12.733Z,11.22
2022-10-07T20:08:44.755Z,11.57
2022-10-07T20:11:12.478Z,11.76
2022-10-07T20:13:40.306Z,11.88
2022-10-07T20:16:08.774Z,11.88
2022-10-07T20:18:36.574Z,11.87
2022-10-07T20:21:08.964Z,11.73
2022-10-07T20:23:37.708Z,11.63
2022-10-07T20:26:08.682Z,11.23
2022-10-07T20:28:35.957Z,11.12
2022-10-07T20:31:04.317Z,11.48
2022-10-07T20:33:36.826Z,11.68
2022-10-07T20:36:04.299Z,11.71
2022-10-07T20:38:31.362Z,11.83
2022-10-07T20:40:58.367Z,11.85
2022-10-07T20:43:25.520Z,11.53
2022-10-07T20:45:54.718Z,11.10
2022-10-07T20:48:22.028Z,10.79
2022-10-07T20:50:49.067Z,10.75
2022-10-07T20:53:15.700Z,11.18
2022-10-07T20:55:42.534Z,11.37
2022-10-07T20:58:09.388Z,11.47
2022-10-07T21:00:36.242Z,11.44
2022-10-07T21:03:02.918Z,11.35
2022-10-07T21:05:29.573Z,11.32
2022-10-07T21:07:56.147Z,11.13
2022-10-07T21:10:23.481Z,10.85
2022-10-07T21:12:50.214Z,10.81
2022-10-07T21:15:17.019Z,10.90
2022-10-07T21:17:43.728Z,11.13
2022-10-07T21:20:10.477Z,11.21
2022-10-07T21:22:39.583Z,11.30
2022-10-07T21:25:06.659Z,11.43
2022-10-07T21:27:33.534Z,11.89
2022-10-07T21:30:00.707Z,11.90
2022-10-07T21:32:29.009Z,11.88
2022-10-07T21:34:56.068Z,11.60
2022-10-07T21:37:22.882Z,11.47
2022-10-07T21:39:49.860Z,11.37
2022-10-07T21:42:16.839Z,11.23
2022-10-07T21:44:43.611Z,11.13
2022-10-07T21:47:10.656Z,11.13
2022-10-07T21:49:37.776Z,11.01
2022-10-07T21:52:04.479Z,10.77
2022-10-07T21:54:31.705Z,10.48
2022-10-07T21:56:58.492Z,10.67
2022-10-07T21:59:25.323Z,10.63
2022-10-07T22:01:52.202Z,10.62
2022-10-07T22:04:19.415Z,10.50
2022-10-07T22:06:46.717Z,10.38
2022-10-07T22:09:15.175Z,10.27
2022-10-07T22:11:42.875Z,10.31
2022-10-07T22:14:12.832Z,10.30
2022-10-07T22:16:40.835Z,10.39
2022-10-07T22:19:08.058Z,10.47
2022-10-07T22:21:35.295Z,10.52
2022-10-07T22:24:04.002Z,10.54
2022-10-07T22:26:33.223Z,10.53
2022-10-07T22:29:00.564Z,10.53
2022-10-07T22:31:27.318Z,10.55
2022-10-07T22:33:57.167Z,10.49
2022-10-07T22:36:24.547Z,10.56
2022-10-07T22:38:51.734Z,10.56
2022-10-07T22:41:19.273Z,10.62
2022-10-07T22:43:47.977Z,10.60
2022-10-07T22:46:17.612Z,10.38
2022-10-07T22:48:44.905Z,10.46
2022-10-07T22:51:13.749Z,10.49
2022-10-07T22:53:45.461Z,10.47
2022-10-07T22:56:15.071Z,10.38
2022-10-07T22:58:44.001Z,10.39
2022-10-07T23:01:13.773Z,10.37
2022-10-07T23:03:42.053Z,10.20
2022-10-07T23:06:13.958Z,10.27
2022-10-07T23:08:42.611Z,10.23
2022-10-07T23:11:14.917Z,10.21
2022-10-07T23:13:41.828Z,10.24
2022-10-07T23:16:11.593Z,10.19
2022-10-07T23:18:39.780Z,10.19
2022-10-07T23:21:10.273Z,10.16
2022-10-07T23:23:38.506Z,10.05
2022-10-07T23:26:15.213Z,10.00
2022-10-07T23:28:42.465Z,9.98
2022-10-07T23:31:14.365Z,9.84
2022-10-07T23:33:41.377Z,9.89
2022-10-07T23:36:10.369Z,10.06
2022-10-07T23:38:38.644Z,9.93
2022-10-07T23:41:06.664Z,10.13
2022-10-07T23:43:33.900Z,10.10
2022-10-07T23:46:01.765Z,10.11
2022-10-07T23:48:28.827Z,10.07
2022-10-07T23:50:55.451Z,9.91
2022-10-07T23:53:23.222Z,9.81
2022-10-07T23:55:51.900Z,9.80
2022-10-07T23:58:21.486Z,9.86
